Time;durP1;ratioP1;P1;durP2;ratioP2;P2;SDS_P1;SDS_P2;PMS_P1;PMS_P2;Temp;Humidity;BMP_temperature;BMP_pressure;BME280_temperature;BME280_humidity;BME280_pressure;Samples;Min_cycle;Max_cycle;Signal;HPM_P1;HPM_P2
2022/07/12 00:00:52;;;;;;;3.42;3.03;;;;;;;;;;5054019;28;20029;-73
2022/07/12 00:03:18;;;;;;;3.13;2.67;;;;;;;;;;5053658;28;20368;-73
2022/07/12 00:05:44;;;;;;;3.08;2.88;;;;;;;;;;5053922;28;20029;-73
2022/07/12 00:08:09;;;;;;;3.40;3.10;;;;;;;;;;5053916;28;20041;-72
2022/07/12 00:10:34;;;;;;;2.88;2.67;;;;;;;;;;5036497;28;20032;-72
2022/07/12 00:13:00;;;;;;;2.92;2.70;;;;;;;;;;5054031;28;20040;-73
2022/07/12 00:15:25;;;;;;;3.22;2.95;;;;;;;;;;5053865;28;20459;-72
2022/07/12 00:17:51;;;;;;;2.90;2.70;;;;;;;;;;5053569;28;20368;-73
2022/07/12 00:20:16;;;;;;;3.13;2.85;;;;;;;;;;5053508;28;20486;-73
2022/07/12 00:22:42;;;;;;;2.85;2.65;;;;;;;;;;5053460;28;20048;-74
2022/07/12 00:25:07;;;;;;;3.08;2.88;;;;;;;;;;5035565;28;20079;-72
2022/07/12 00:27:33;;;;;;;2.80;2.60;;;;;;;;;;5053805;28;20391;-74
2022/07/12 00:30:00;;;;;;;2.35;2.20;;;;;;;;;;5035847;28;20063;-74
2022/07/12 00:32:25;;;;;;;2.80;2.40;;;;;;;;;;5035988;28;20057;-74
2022/07/12 00:34:51;;;;;;;2.72;2.53;;;;;;;;;;5054108;28;20064;-74
2022/07/12 00:37:16;;;;;;;2.80;2.35;;;;;;;;;;5053660;28;20036;-73
2022/07/12 00:39:41;;;;;;;2.42;2.22;;;;;;;;;;5053323;28;20029;-72
2022/07/12 00:42:07;;;;;;;2.88;2.20;;;;;;;;;;5053492;28;20037;-72
2022/07/12 00:44:33;;;;;;;2.15;2.05;;;;;;;;;;5053374;28;20025;-72
2022/07/12 00:46:59;;;;;;;2.78;2.25;;;;;;;;;;5035887;28;20202;-73
2022/07/12 00:49:25;;;;;;;2.42;2.22;;;;;;;;;;5053458;28;20475;-74
2022/07/12 00:51:50;;;;;;;4.43;2.30;;;;;;;;;;5053599;28;20044;-72
2022/07/12 00:54:16;;;;;;;2.60;2.35;;;;;;;;;;5035744;28;20041;-66
2022/07/12 00:56:42;;;;;;;2.53;2.33;;;;;;;;;;5053323;28;20044;-66
2022/07/12 00:59:08;;;;;;;2.97;2.25;;;;;;;;;;5053307;28;20033;-67
2022/07/12 01:01:33;;;;;;;2.50;2.30;;;;;;;;;;5053308;28;20479;-68
2022/07/12 01:03:58;;;;;;;2.97;2.78;;;;;;;;;;5055226;28;20067;-67
2022/07/12 01:06:25;;;;;;;2.63;2.42;;;;;;;;;;5056925;28;20036;-67
2022/07/12 01:08:50;;;;;;;2.22;2.13;;;;;;;;;;5057604;28;20025;-68
2022/07/12 01:11:16;;;;;;;2.67;2.47;;;;;;;;;;5057015;28;20048;-66
2022/07/12 01:13:42;;;;;;;2.53;2.33;;;;;;;;;;5057034;28;20035;-65
2022/07/12 01:16:07;;;;;;;3.22;2.45;;;;;;;;;;5057190;28;20040;-66
2022/07/12 01:18:33;;;;;;;3.60;2.65;;;;;;;;;;5056684;28;20032;-68
2022/07/12 01:21:02;;;;;;;2.92;2.72;;;;;;;;;;5057413;28;20052;-67
2022/07/12 01:23:28;;;;;;;3.00;2.80;;;;;;;;;;5057171;28;20034;-69
2022/07/12 01:25:53;;;;;;;3.72;3.42;;;;;;;;;;5057005;28;20036;-69
2022/07/12 01:28:18;;;;;;;2.78;2.58;;;;;;;;;;5057090;28;20092;-69
2022/07/12 01:30:44;;;;;;;2.88;2.72;;;;;;;;;;5057102;28;20060;-69
2022/07/12 01:33:10;;;;;;;4.03;2.95;;;;;;;;;;5056792;28;20116;-69
2022/07/12 01:35:36;;;;;;;3.28;2.88;;;;;;;;;;5038778;28;20040;-68
2022/07/12 01:38:01;;;;;;;3.55;2.58;;;;;;;;;;5056415;28;20071;-68
2022/07/12 01:40:27;;;;;;;2.80;2.60;;;;;;;;;;5056282;28;20124;-68
2022/07/12 01:42:53;;;;;;;2.70;2.50;;;;;;;;;;5038352;28;20364;-69
2022/07/12 01:45:19;;;;;;;2.63;2.53;;;;;;;;;;5056614;28;20036;-69
2022/07/12 01:47:44;;;;;;;3.30;2.42;;;;;;;;;;5056784;28;20029;-69
2022/07/12 01:50:10;;;;;;;2.70;2.55;;;;;;;;;;5056000;28;20041;-69
2022/07/12 01:52:37;;;;;;;2.83;2.55;;;;;;;;;;5056374;28;20037;-67
2022/07/12 01:55:03;;;;;;;2.35;2.15;;;;;;;;;;5038511;28;20437;-68
2022/07/12 01:57:29;;;;;;;2.22;2.05;;;;;;;;;;5056307;28;20125;-66
2022/07/12 01:59:55;;;;;;;2.17;1.90;;;;;;;;;;5056192;28;20068;-66
2022/07/12 02:02:20;;;;;;;2.20;2.00;;;;;;;;;;5037960;28;20040;-67
2022/07/12 02:04:46;;;;;;;1.83;1.73;;;;;;;;;;5055923;28;20487;-68
2022/07/12 02:07:12;;;;;;;3.28;1.90;;;;;;;;;;5056057;28;20029;-69
2022/07/12 02:09:37;;;;;;;2.80;2.00;;;;;;;;;;5055769;28;20031;-72
2022/07/12 02:12:03;;;;;;;1.95;1.83;;;;;;;;;;5053440;23;20052;-73
2022/07/12 02:14:28;;;;;;;1.73;1.63;;;;;;;;;;5054260;28;20029;-73
2022/07/12 02:16:54;;;;;;;1.67;1.58;;;;;;;;;;5055507;28;20094;-73
2022/07/12 02:19:19;;;;;;;1.85;1.50;;;;;;;;;;5055583;28;20456;-72
2022/07/12 02:21:44;;;;;;;1.77;1.67;;;;;;;;;;5055419;28;20041;-73
2022/07/12 02:24:10;;;;;;;1.58;1.48;;;;;;;;;;5056029;28;20048;-73
2022/07/12 02:26:36;;;;;;;1.80;1.60;;;;;;;;;;5055444;28;20031;-73
2022/07/12 02:29:02;;;;;;;1.75;1.65;;;;;;;;;;5055907;28;20072;-74
2022/07/12 02:31:27;;;;;;;1.65;1.55;;;;;;;;;;5055321;28;20025;-73
2022/07/12 02:33:53;;;;;;;1.65;1.55;;;;;;;;;;5055285;28;20083;-74
2022/07/12 02:36:18;;;;;;;1.58;1.48;;;;;;;;;;5055801;28;20344;-73
2022/07/12 02:38:43;;;;;;;1.80;1.70;;;;;;;;;;5055210;28;20480;-73
2022/07/12 02:41:09;;;;;;;1.75;1.65;;;;;;;;;;5053918;28;20036;-73
2022/07/12 02:43:34;;;;;;;1.83;1.50;;;;;;;;;;5053758;28;20122;-74
2022/07/12 02:46:04;;;;;;;1.52;1.42;;;;;;;;;;5055045;28;20033;-72
2022/07/12 02:48:29;;;;;;;2.42;1.73;;;;;;;;;;5053776;28;20134;-74
2022/07/12 02:50:55;;;;;;;1.70;1.60;;;;;;;;;;5055229;28;20414;-74
2022/07/12 02:53:20;;;;;;;1.55;1.45;;;;;;;;;;5054001;28;20053;-74
2022/07/12 02:55:46;;;;;;;1.65;1.55;;;;;;;;;;5054856;28;20087;-74
2022/07/12 02:58:14;;;;;;;3.05;1.40;;;;;;;;;;5055104;28;20037;-74
2022/07/12 03:00:40;;;;;;;1.42;1.30;;;;;;;;;;5055043;28;20036;-73
2022/07/12 03:03:07;;;;;;;2.30;1.30;;;;;;;;;;5053736;28;20090;-75
2022/07/12 03:05:33;;;;;;;3.38;1.40;;;;;;;;;;5054042;28;20036;-73
2022/07/12 03:07:58;;;;;;;1.80;1.27;;;;;;;;;;5054620;28;20045;-75
2022/07/12 03:10:24;;;;;;;1.35;1.23;;;;;;;;;;5055145;28;20040;-74
2022/07/12 03:12:50;;;;;;;1.10;1.10;;;;;;;;;;5071082;28;20072;-74
2022/07/12 03:15:15;;;;;;;1.40;1.30;;;;;;;;;;5074724;28;20059;-74
2022/07/12 03:17:42;;;;;;;1.50;1.40;;;;;;;;;;5074351;28;20041;-73
2022/07/12 03:20:11;;;;;;;1.35;1.25;;;;;;;;;;5074361;28;20032;-74
2022/07/12 03:22:36;;;;;;;1.48;1.38;;;;;;;;;;5074526;28;20045;-74
2022/07/12 03:25:02;;;;;;;4.05;1.50;;;;;;;;;;5057010;28;20028;-74
2022/07/12 03:27:27;;;;;;;1.52;1.10;;;;;;;;;;5074111;28;20475;-73
2022/07/12 03:29:52;;;;;;;1.25;1.15;;;;;;;;;;5073354;28;20459;-73
2022/07/12 03:32:19;;;;;;;1.33;1.23;;;;;;;;;;5073037;28;20163;-73
2022/07/12 03:34:44;;;;;;;1.30;1.20;;;;;;;;;;5072986;28;20394;-73
2022/07/12 03:37:09;;;;;;;2.03;1.40;;;;;;;;;;5072968;28;20037;-73
2022/07/12 03:39:35;;;;;;;1.10;1.10;;;;;;;;;;5055126;28;20119;-73
2022/07/12 03:42:01;;;;;;;1.10;1.10;;;;;;;;;;5055026;28;20059;-73
2022/07/12 03:44:26;;;;;;;1.95;1.25;;;;;;;;;;5072924;28;20037;-73
2022/07/12 03:46:51;;;;;;;1.33;1.25;;;;;;;;;;5072815;28;20034;-73
2022/07/12 03:49:17;;;;;;;1.15;1.15;;;;;;;;;;5072826;28;20528;-73
2022/07/12 03:51:42;;;;;;;3.38;1.40;;;;;;;;;;5072719;28;20072;-73
2022/07/12 03:54:07;;;;;;;1.20;1.10;;;;;;;;;;5072721;28;20028;-73
2022/07/12 03:59:20;;;;;;;1.38;1.10;;;;;;;;;;5054630;28;20055;-73
2022/07/12 04:01:45;;;;;;;1.02;0.95;;;;;;;;;;5072604;28;20469;-73
2022/07/12 04:04:11;;;;;;;0.93;0.93;;;;;;;;;;5072641;28;20028;-73
2022/07/12 04:06:36;;;;;;;1.20;1.17;;;;;;;;;;5054572;28;20028;-73
2022/07/12 04:09:02;;;;;;;1.35;1.20;;;;;;;;;;5073507;28;20505;-73
2022/07/12 04:11:28;;;;;;;0.82;0.82;;;;;;;;;;5073446;28;20036;-73
2022/07/12 04:13:53;;;;;;;3.30;0.95;;;;;;;;;;5073591;28;20041;-75
2022/07/12 04:16:18;;;;;;;1.15;0.98;;;;;;;;;;5073506;28;20016;-75
2022/07/12 04:18:44;;;;;;;0.80;0.80;;;;;;;;;;5055392;28;20024;-74
2022/07/12 04:21:09;;;;;;;1.20;1.10;;;;;;;;;;5073842;28;20017;-74
2022/07/12 04:23:34;;;;;;;2.33;1.20;;;;;;;;;;5072137;28;20044;-74
2022/07/12 04:26:00;;;;;;;1.13;1.13;;;;;;;;;;5072295;28;20029;-73
2022/07/12 04:28:25;;;;;;;1.45;1.17;;;;;;;;;;5055903;28;20040;-73
2022/07/12 04:30:51;;;;;;;1.05;1.00;;;;;;;;;;5073606;28;20049;-73
2022/07/12 04:33:16;;;;;;;0.95;0.95;;;;;;;;;;5071951;28;20043;-73
2022/07/12 04:35:41;;;;;;;2.50;1.10;;;;;;;;;;5071279;28;20192;-73
2022/07/12 04:38:07;;;;;;;2.17;1.00;;;;;;;;;;5036934;28;20041;-73
2022/07/12 04:40:33;;;;;;;1.05;1.00;;;;;;;;;;5075788;28;20021;-73
2022/07/12 04:42:59;;;;;;;1.00;1.00;;;;;;;;;;5076415;28;20043;-73
2022/07/12 04:45:25;;;;;;;1.00;0.90;;;;;;;;;;5058546;28;20386;-73
2022/07/12 04:47:50;;;;;;;1.25;0.90;;;;;;;;;;5076568;28;20179;-73
2022/07/12 04:50:16;;;;;;;0.90;0.90;;;;;;;;;;5076660;28;20145;-73
2022/07/12 04:52:42;;;;;;;1.17;1.00;;;;;;;;;;5076849;28;20040;-73
2022/07/12 04:55:08;;;;;;;0.85;0.85;;;;;;;;;;5077468;28;20111;-73
2022/07/12 04:57:33;;;;;;;2.08;0.70;;;;;;;;;;5059212;28;20041;-73
2022/07/12 04:59:58;;;;;;;0.70;0.70;;;;;;;;;;5059165;28;20032;-73
2022/07/12 05:02:24;;;;;;;0.70;0.70;;;;;;;;;;5076923;28;20394;-73
2022/07/12 05:04:49;;;;;;;0.95;0.60;;;;;;;;;;5059046;28;20013;-73
2022/07/12 05:07:15;;;;;;;0.70;0.70;;;;;;;;;;5076878;28;20067;-73
2022/07/12 05:09:40;;;;;;;1.20;0.90;;;;;;;;;;5076877;28;20047;-73
2022/07/12 05:12:06;;;;;;;1.80;0.63;;;;;;;;;;5076946;28;20175;-73
2022/07/12 05:14:31;;;;;;;1.65;1.00;;;;;;;;;;5058850;28;20033;-73
2022/07/12 05:16:57;;;;;;;0.73;0.70;;;;;;;;;;5059706;28;20534;-73
2022/07/12 05:19:22;;;;;;;0.88;0.70;;;;;;;;;;5076704;28;20429;-73
2022/07/12 05:21:48;;;;;;;0.63;0.63;;;;;;;;;;5064941;23;20064;-67
2022/07/12 05:24:14;;;;;;;0.60;0.60;;;;;;;;;;5058644;28;20379;-67
2022/07/12 05:26:39;;;;;;;1.77;0.70;;;;;;;;;;5077101;28;20064;-67
2022/07/12 05:29:04;;;;;;;2.15;0.85;;;;;;;;;;5076816;28;20020;-67
2022/07/12 05:31:30;;;;;;;1.08;0.65;;;;;;;;;;5076484;28;20114;-67
2022/07/12 05:33:55;;;;;;;0.65;0.65;;;;;;;;;;5076744;28;20107;-67
2022/07/12 05:36:21;;;;;;;1.08;0.88;;;;;;;;;;5076407;28;20082;-67
2022/07/12 05:38:46;;;;;;;1.55;0.73;;;;;;;;;;5058525;28;20036;-67
2022/07/12 05:41:12;;;;;;;0.75;0.75;;;;;;;;;;5058460;28;20037;-67
2022/07/12 05:43:37;;;;;;;1.60;0.70;;;;;;;;;;5076803;28;20025;-67
2022/07/12 05:46:03;;;;;;;1.10;0.80;;;;;;;;;;5058361;28;20037;-67
2022/07/12 05:48:29;;;;;;;1.25;0.68;;;;;;;;;;5058330;28;20016;-67
2022/07/12 05:50:54;;;;;;;1.80;0.98;;;;;;;;;;5074815;28;20493;-67
2022/07/12 05:53:22;;;;;;;1.50;1.25;;;;;;;;;;5076129;28;20406;-67
2022/07/12 05:55:52;;;;;;;1.90;1.52;;;;;;;;;;5076650;28;20482;-73
2022/07/12 05:58:18;;;;;;;3.20;1.63;;;;;;;;;;5076289;28;20036;-73
2022/07/12 06:00:44;;;;;;;3.20;1.73;;;;;;;;;;5075962;28;20024;-73
2022/07/12 06:03:10;;;;;;;3.35;1.65;;;;;;;;;;5076141;28;20110;-73
2022/07/12 06:05:35;;;;;;;2.35;2.00;;;;;;;;;;5075869;28;20044;-73
2022/07/12 06:08:01;;;;;;;5.43;2.35;;;;;;;;;;5057876;28;20127;-73
2022/07/12 06:10:26;;;;;;;5.18;2.28;;;;;;;;;;5076084;28;20070;-73
2022/07/12 06:12:51;;;;;;;5.95;2.55;;;;;;;;;;5075980;28;20041;-73
2022/07/12 06:15:17;;;;;;;4.22;2.15;;;;;;;;;;5075988;28;20035;-73
2022/07/12 06:17:42;;;;;;;4.45;2.42;;;;;;;;;;5058042;28;20048;-73
2022/07/12 06:20:08;;;;;;;3.45;2.05;;;;;;;;;;5075872;28;20036;-73
2022/07/12 06:22:34;;;;;;;3.97;2.25;;;;;;;;;;5075487;28;20028;-72
2022/07/12 06:24:59;;;;;;;4.65;2.22;;;;;;;;;;5076066;28;20107;-72
2022/07/12 06:27:25;;;;;;;2.30;2.03;;;;;;;;;;5075432;28;20484;-73
2022/07/12 06:29:50;;;;;;;2.83;2.03;;;;;;;;;;5075396;28;20498;-73
2022/07/12 06:32:16;;;;;;;2.95;2.08;;;;;;;;;;5075328;28;20120;-73
2022/07/12 06:34:41;;;;;;;4.45;1.60;;;;;;;;;;5075537;28;20086;-72
2022/07/12 06:37:08;;;;;;;2.13;1.92;;;;;;;;;;5075529;28;20111;-73
2022/07/12 06:39:35;;;;;;;1.88;1.77;;;;;;;;;;5075120;28;20111;-72
2022/07/12 06:42:03;;;;;;;1.70;1.58;;;;;;;;;;5075347;28;20455;-73
2022/07/12 06:44:32;;;;;;;2.22;1.52;;;;;;;;;;5075098;28;20031;-72
2022/07/12 06:46:57;;;;;;;2.33;1.60;;;;;;;;;;5075070;28;20518;-72
2022/07/12 06:49:23;;;;;;;2.22;1.55;;;;;;;;;;5075016;28;20116;-72
2022/07/12 06:51:48;;;;;;;1.60;1.50;;;;;;;;;;5074973;28;20037;-72
2022/07/12 06:54:14;;;;;;;2.03;1.70;;;;;;;;;;5056936;28;20043;-73
2022/07/12 06:56:39;;;;;;;2.08;1.55;;;;;;;;;;5074849;28;20028;-73
2022/07/12 06:59:04;;;;;;;1.48;1.38;;;;;;;;;;5075053;28;20478;-73
2022/07/12 07:01:30;;;;;;;2.95;1.20;;;;;;;;;;5074639;28;20020;-73
2022/07/12 07:03:55;;;;;;;1.30;1.20;;;;;;;;;;5074981;28;20047;-67
2022/07/12 07:06:20;;;;;;;1.15;0.90;;;;;;;;;;5074665;28;20406;-67
2022/07/12 07:08:46;;;;;;;1.20;1.10;;;;;;;;;;5075156;28;20120;-67
2022/07/12 07:11:11;;;;;;;1.20;1.20;;;;;;;;;;5074575;28;20367;-67
2022/07/12 07:13:37;;;;;;;3.45;1.20;;;;;;;;;;5074501;28;20445;-67
2022/07/12 07:16:02;;;;;;;1.13;0.88;;;;;;;;;;5074744;28;20033;-67
2022/07/12 07:18:28;;;;;;;2.67;1.00;;;;;;;;;;5074711;28;20447;-67
2022/07/12 07:20:53;;;;;;;1.33;1.20;;;;;;;;;;5074395;28;20036;-67
2022/07/12 07:23:19;;;;;;;1.17;1.00;;;;;;;;;;5074082;28;20045;-67
2022/07/12 07:25:45;;;;;;;1.10;1.00;;;;;;;;;;5057085;28;20028;-67
2022/07/12 07:28:11;;;;;;;2.47;1.02;;;;;;;;;;5074833;28;20052;-67
2022/07/12 07:30:52;;;;;;;2.85;1.00;;;;;;;;;;5074546;28;20029;-66
2022/07/12 07:33:18;;;;;;;1.95;0.95;;;;;;;;;;5074173;28;20458;-67
2022/07/12 07:35:43;;;;;;;1.00;1.00;;;;;;;;;;5074117;28;20040;-67
2022/07/12 07:38:10;;;;;;;1.85;1.20;;;;;;;;;;5074343;28;20040;-67
2022/07/12 07:40:36;;;;;;;1.48;1.23;;;;;;;;;;5074325;28;20374;-67
2022/07/12 07:43:01;;;;;;;1.23;1.17;;;;;;;;;;5073912;28;20036;-66
2022/07/12 07:45:26;;;;;;;1.80;1.25;;;;;;;;;;5056445;28;20032;-67
2022/07/12 07:47:52;;;;;;;1.58;1.10;;;;;;;;;;5073952;28;20032;-67
2022/07/12 07:50:17;;;;;;;1.05;0.88;;;;;;;;;;5074218;28;20097;-67
2022/07/12 07:52:43;;;;;;;1.45;1.20;;;;;;;;;;5073845;28;20452;-67
2022/07/12 07:55:08;;;;;;;1.42;1.33;;;;;;;;;;5074442;28;20073;-67
2022/07/12 07:57:34;;;;;;;1.00;0.95;;;;;;;;;;5074137;28;20040;-67
2022/07/12 07:59:59;;;;;;;0.93;0.93;;;;;;;;;;5073802;28;20028;-66
2022/07/12 08:02:24;;;;;;;1.30;1.20;;;;;;;;;;5073953;28;20040;-67
2022/07/12 08:04:51;;;;;;;1.08;0.75;;;;;;;;;;5074046;28;20028;-67
2022/07/12 08:07:17;;;;;;;1.17;1.00;;;;;;;;;;5073996;28;20113;-67
2022/07/12 08:09:42;;;;;;;1.42;0.95;;;;;;;;;;5073959;28;20071;-67
2022/07/12 08:12:08;;;;;;;1.67;0.90;;;;;;;;;;5073947;28;20044;-67
2022/07/12 08:14:33;;;;;;;0.70;0.70;;;;;;;;;;5054970;28;20036;-66
2022/07/12 08:16:58;;;;;;;0.70;0.70;;;;;;;;;;5073854;28;20120;-66
2022/07/12 08:19:24;;;;;;;1.30;0.82;;;;;;;;;;5073583;28;20068;-66
2022/07/12 08:21:49;;;;;;;0.82;0.50;;;;;;;;;;5073472;28;20040;-67
2022/07/12 08:24:14;;;;;;;0.68;0.52;;;;;;;;;;5073423;28;20153;-67
2022/07/12 08:26:40;;;;;;;1.67;0.70;;;;;;;;;;5073794;28;20036;-66
2022/07/12 08:29:05;;;;;;;0.65;0.57;;;;;;;;;;5073792;28;20016;-67
2022/07/12 08:31:31;;;;;;;2.03;0.70;;;;;;;;;;5074248;28;20560;-67
2022/07/12 08:33:57;;;;;;;1.00;0.70;;;;;;;;;;5057480;28;20071;-67
2022/07/12 08:36:22;;;;;;;0.90;0.70;;;;;;;;;;5056621;28;20049;-67
2022/07/12 08:38:48;;;;;;;1.60;0.52;;;;;;;;;;5073404;28;20024;-67
2022/07/12 08:41:14;;;;;;;3.25;0.57;;;;;;;;;;5073644;28;20036;-66
2022/07/12 08:43:39;;;;;;;0.65;0.65;;;;;;;;;;5073292;28;20029;-67
2022/07/12 08:46:04;;;;;;;0.63;0.63;;;;;;;;;;5073604;28;20102;-67
2022/07/12 08:48:30;;;;;;;0.65;0.65;;;;;;;;;;5073633;28;20154;-67
2022/07/12 08:51:22;;;;;;;0.52;0.52;;;;;;;;;;5073534;28;20039;-67
2022/07/12 08:54:04;;;;;;;0.77;0.70;;;;;;;;;;5036424;28;20124;-67
2022/07/12 08:56:33;;;;;;;0.90;0.77;;;;;;;;;;5051960;28;20517;-67
2022/07/12 08:59:08;;;;;;;1.05;0.70;;;;;;;;;;5052602;28;20107;-68
2022/07/12 09:01:41;;;;;;;1.08;0.70;;;;;;;;;;5073053;28;20033;-68
2022/07/12 09:04:11;;;;;;;0.60;0.60;;;;;;;;;;5055149;28;20447;-68
2022/07/12 09:06:36;;;;;;;0.90;0.80;;;;;;;;;;5073288;28;20459;-68
2022/07/12 09:09:01;;;;;;;1.08;0.68;;;;;;;;;;5055219;28;20045;-67
2022/07/12 09:11:27;;;;;;;0.80;0.80;;;;;;;;;;5073127;28;20071;-68
2022/07/12 09:13:53;;;;;;;1.80;0.90;;;;;;;;;;5073279;28;20047;-68
2022/07/12 09:16:19;;;;;;;1.67;0.90;;;;;;;;;;5073087;28;20386;-68
2022/07/12 09:18:45;;;;;;;2.13;0.77;;;;;;;;;;5055011;28;20449;-68
2022/07/12 09:21:20;;;;;;;0.70;0.68;;;;;;;;;;5055107;28;20060;-67
2022/07/12 09:23:53;;;;;;;0.73;0.70;;;;;;;;;;5051469;28;20041;-67
2022/07/12 09:26:18;;;;;;;2.58;0.80;;;;;;;;;;5057024;28;20037;-67
2022/07/12 09:28:44;;;;;;;0.80;0.73;;;;;;;;;;5038654;28;20071;-67
2022/07/12 09:31:09;;;;;;;1.25;0.75;;;;;;;;;;5056552;28;20045;-68
2022/07/12 09:36:23;;;;;;;1.50;0.70;;;;;;;;;;5055181;28;20180;-67
2022/07/12 09:38:50;;;;;;;2.33;0.88;;;;;;;;;;5056382;28;20087;-67
2022/07/12 09:41:19;;;;;;;2.15;1.10;;;;;;;;;;5039074;28;20086;-67
2022/07/12 09:43:45;;;;;;;2.80;0.75;;;;;;;;;;5056783;28;20116;-67
2022/07/12 09:46:10;;;;;;;0.80;0.70;;;;;;;;;;5056235;28;20498;-67
2022/07/12 09:48:40;;;;;;;1.92;0.82;;;;;;;;;;5056255;28;20039;-67
2022/07/12 09:51:07;;;;;;;0.70;0.70;;;;;;;;;;5038255;28;20035;-67
2022/07/12 09:53:37;;;;;;;1.88;0.70;;;;;;;;;;5056632;28;20483;-68
2022/07/12 09:56:05;;;;;;;1.30;0.93;;;;;;;;;;5056076;28;20037;-67
2022/07/12 09:58:31;;;;;;;3.03;0.73;;;;;;;;;;5055419;28;20434;-67
2022/07/12 10:00:59;;;;;;;0.88;0.65;;;;;;;;;;5055973;28;20044;-68
2022/07/12 10:03:27;;;;;;;1.00;0.70;;;;;;;;;;5056034;28;20076;-67
2022/07/12 10:05:54;;;;;;;1.30;0.80;;;;;;;;;;5055890;28;20064;-67
2022/07/12 10:08:19;;;;;;;0.90;0.77;;;;;;;;;;5056102;28;20032;-67
2022/07/12 10:10:45;;;;;;;1.17;1.00;;;;;;;;;;5055757;28;20422;-67
2022/07/12 10:13:11;;;;;;;2.10;0.93;;;;;;;;;;5056018;28;20033;-67
2022/07/12 10:15:38;;;;;;;2.20;0.70;;;;;;;;;;5055969;28;20041;-67
2022/07/12 10:18:04;;;;;;;1.52;0.75;;;;;;;;;;5055647;28;20025;-67
2022/07/12 10:20:29;;;;;;;1.42;0.93;;;;;;;;;;5055859;28;20115;-67
2022/07/12 10:23:15;;;;;;;1.00;0.70;;;;;;;;;;5063529;28;20132;-67
2022/07/12 10:25:40;;;;;;;0.63;0.60;;;;;;;;;;5047595;28;20426;-67
2022/07/12 10:28:05;;;;;;;1.35;1.00;;;;;;;;;;5075494;28;20037;-67
2022/07/12 10:30:40;;;;;;;1.52;0.60;;;;;;;;;;5075401;28;20040;-67
2022/07/12 10:33:14;;;;;;;0.68;0.63;;;;;;;;;;5075621;28;20036;-67
2022/07/12 10:35:39;;;;;;;2.30;0.70;;;;;;;;;;5075058;28;20095;-67
2022/07/12 10:38:13;;;;;;;0.60;0.60;;;;;;;;;;5075411;28;20036;-67
2022/07/12 10:40:39;;;;;;;1.38;0.80;;;;;;;;;;5075186;28;20044;-67
2022/07/12 10:43:05;;;;;;;1.83;0.80;;;;;;;;;;5057548;28;20032;-67
2022/07/12 10:45:32;;;;;;;1.95;0.68;;;;;;;;;;5075382;28;20085;-67
2022/07/12 10:48:01;;;;;;;0.70;0.70;;;;;;;;;;5075631;28;20028;-67
2022/07/12 10:50:44;;;;;;;0.90;0.70;;;;;;;;;;5075600;28;20064;-67
2022/07/12 10:53:22;;;;;;;0.75;0.70;;;;;;;;;;5057704;28;20041;-67
2022/07/12 10:56:07;;;;;;;1.00;0.88;;;;;;;;;;5075174;28;20047;-67
2022/07/12 10:58:40;;;;;;;1.83;0.47;;;;;;;;;;5075131;28;20578;-67
2022/07/12 11:01:11;;;;;;;1.65;0.70;;;;;;;;;;5075041;28;20044;-67
2022/07/12 11:03:46;;;;;;;0.68;0.63;;;;;;;;;;5074971;28;20063;-66
2022/07/12 11:06:14;;;;;;;0.65;0.65;;;;;;;;;;5056834;28;20063;-67
2022/07/12 11:08:53;;;;;;;0.60;0.60;;;;;;;;;;5056786;28;20073;-67
2022/07/12 11:11:19;;;;;;;1.13;0.70;;;;;;;;;;5074919;28;20037;-67
2022/07/12 11:13:44;;;;;;;2.83;0.57;;;;;;;;;;5075145;28;20439;-72
2022/07/12 11:16:10;;;;;;;2.08;0.63;;;;;;;;;;5074784;28;20036;-73
2022/07/12 11:18:36;;;;;;;2.67;0.55;;;;;;;;;;5074495;28;20048;-74
2022/07/12 11:21:02;;;;;;;0.57;0.50;;;;;;;;;;5074954;28;20378;-73
2022/07/12 11:23:28;;;;;;;2.78;0.80;;;;;;;;;;5056886;28;20497;-74
2022/07/12 11:25:54;;;;;;;1.40;0.70;;;;;;;;;;5075297;28;20024;-73
2022/07/12 11:28:20;;;;;;;1.00;0.80;;;;;;;;;;5074806;28;20506;-73
2022/07/12 11:30:49;;;;;;;1.27;0.52;;;;;;;;;;5074250;28;20041;-72
2022/07/12 11:33:14;;;;;;;0.73;0.50;;;;;;;;;;5074203;28;20035;-73
2022/07/12 11:35:45;;;;;;;2.42;0.73;;;;;;;;;;5074421;28;20064;-72
2022/07/12 11:38:11;;;;;;;2.40;0.50;;;;;;;;;;5074428;28;20040;-72
2022/07/12 11:40:36;;;;;;;0.88;0.60;;;;;;;;;;5074367;28;20024;-72
2022/07/12 11:43:03;;;;;;;1.63;1.13;;;;;;;;;;5073925;28;20072;-72
2022/07/12 11:45:29;;;;;;;1.00;0.60;;;;;;;;;;5074294;28;20450;-72
2022/07/12 11:47:56;;;;;;;0.57;0.50;;;;;;;;;;5073149;28;20033;-72
2022/07/12 11:50:21;;;;;;;1.20;1.00;;;;;;;;;;5056806;28;20422;-73
2022/07/12 11:52:47;;;;;;;0.82;0.80;;;;;;;;;;5073924;28;20032;-73
2022/07/12 11:55:12;;;;;;;0.57;0.57;;;;;;;;;;5073859;28;20359;-72
2022/07/12 11:57:37;;;;;;;0.80;0.60;;;;;;;;;;5074098;28;20055;-73
2022/07/12 12:00:14;;;;;;;0.60;0.60;;;;;;;;;;5074092;28;20039;-72
2022/07/12 12:02:39;;;;;;;1.17;0.65;;;;;;;;;;5073738;28;20036;-72
2022/07/12 12:05:05;;;;;;;0.80;0.80;;;;;;;;;;5073755;28;20486;-72
2022/07/12 12:07:30;;;;;;;0.22;0.22;;;;;;;;;;5055735;28;20036;-72
2022/07/12 12:10:03;;;;;;;1.50;0.50;;;;;;;;;;5073723;28;20032;-72
2022/07/12 12:12:48;;;;;;;0.65;0.50;;;;;;;;;;5073942;28;20043;-73
2022/07/12 12:15:15;;;;;;;1.02;0.60;;;;;;;;;;5055635;28;20043;-72
2022/07/12 12:18:04;;;;;;;0.68;0.63;;;;;;;;;;5074198;28;20082;-73
2022/07/12 12:20:34;;;;;;;1.17;0.68;;;;;;;;;;5047738;28;20072;-72
2022/07/12 12:23:04;;;;;;;1.70;0.77;;;;;;;;;;5083395;23;20070;-67
2022/07/12 12:25:30;;;;;;;2.63;0.73;;;;;;;;;;5052908;28;20036;-67
2022/07/12 12:27:57;;;;;;;1.25;0.65;;;;;;;;;;5069770;28;20112;-67
2022/07/12 12:30:23;;;;;;;1.25;0.80;;;;;;;;;;5073482;28;20040;-67
2022/07/12 12:32:52;;;;;;;1.02;0.60;;;;;;;;;;5073778;28;20110;-67
2022/07/12 12:35:18;;;;;;;0.60;0.50;;;;;;;;;;5073743;28;20536;-67
2022/07/12 12:37:50;;;;;;;0.63;0.60;;;;;;;;;;5073471;28;20041;-68
2022/07/12 12:40:23;;;;;;;0.95;0.65;;;;;;;;;;5073934;28;20482;-68
2022/07/12 12:42:49;;;;;;;1.83;0.60;;;;;;;;;;5073597;28;20036;-67
2022/07/12 12:45:24;;;;;;;1.05;0.55;;;;;;;;;;5055388;28;20086;-67
2022/07/12 12:47:57;;;;;;;1.45;0.60;;;;;;;;;;5055364;28;20044;-67
2022/07/12 12:50:41;;;;;;;0.73;0.55;;;;;;;;;;5073572;28;20037;-67
2022/07/12 12:53:10;;;;;;;0.45;0.45;;;;;;;;;;5073260;28;20041;-67
2022/07/12 12:55:36;;;;;;;2.95;0.60;;;;;;;;;;5073508;28;20036;-67
2022/07/12 12:58:01;;;;;;;0.52;0.50;;;;;;;;;;5055211;28;20127;-67
2022/07/12 13:00:28;;;;;;;0.47;0.47;;;;;;;;;;5057695;28;20062;-68
2022/07/12 13:02:53;;;;;;;0.50;0.50;;;;;;;;;;5077316;28;20067;-67
2022/07/12 13:05:18;;;;;;;0.47;0.40;;;;;;;;;;5077011;28;20064;-68
2022/07/12 13:07:44;;;;;;;0.52;0.50;;;;;;;;;;5077275;28;20028;-67
2022/07/12 13:10:09;;;;;;;0.40;0.40;;;;;;;;;;5077492;28;20028;-67
2022/07/12 13:12:35;;;;;;;1.10;0.47;;;;;;;;;;5077472;28;20032;-67
2022/07/12 13:15:00;;;;;;;2.30;0.50;;;;;;;;;;5076822;28;20045;-67
2022/07/12 13:17:25;;;;;;;0.93;0.50;;;;;;;;;;5077359;28;20117;-67
2022/07/12 13:19:51;;;;;;;1.40;0.60;;;;;;;;;;5076761;28;20040;-67
2022/07/12 13:22:16;;;;;;;0.60;0.60;;;;;;;;;;5076632;28;20024;-67
2022/07/12 13:24:42;;;;;;;0.60;0.60;;;;;;;;;;5076614;28;20049;-67
2022/07/12 13:27:07;;;;;;;1.25;0.50;;;;;;;;;;5076881;28;20024;-67
2022/07/12 13:29:33;;;;;;;1.00;0.60;;;;;;;;;;5058628;28;20032;-68
2022/07/12 13:31:58;;;;;;;0.55;0.50;;;;;;;;;;5058669;28;20478;-67
2022/07/12 13:34:24;;;;;;;0.60;0.60;;;;;;;;;;5076658;28;20119;-67
2022/07/12 13:36:49;;;;;;;0.50;0.50;;;;;;;;;;5076751;28;20020;-68
2022/07/12 13:41:59;;;;;;;0.68;0.65;;;;;;;;;;5076051;28;20031;-67
2022/07/12 13:44:24;;;;;;;0.50;0.50;;;;;;;;;;5075265;28;20095;-68
2022/07/12 13:46:50;;;;;;;0.50;0.40;;;;;;;;;;5075553;28;20040;-68
2022/07/12 13:49:15;;;;;;;1.27;0.43;;;;;;;;;;5057270;28;20063;-67
2022/07/12 13:51:40;;;;;;;1.00;0.40;;;;;;;;;;5075065;28;20498;-67
2022/07/12 13:54:07;;;;;;;0.52;0.40;;;;;;;;;;5074996;28;20116;-68
2022/07/12 13:56:33;;;;;;;0.73;0.40;;;;;;;;;;5075017;28;20048;-68
2022/07/12 13:58:58;;;;;;;0.57;0.50;;;;;;;;;;5074953;28;20029;-67
2022/07/12 14:01:23;;;;;;;0.80;0.80;;;;;;;;;;5074893;28;20502;-67
2022/07/12 14:03:50;;;;;;;0.70;0.65;;;;;;;;;;5074933;28;20033;-68
2022/07/12 14:06:15;;;;;;;1.73;0.50;;;;;;;;;;5075003;28;20028;-68
2022/07/12 14:08:41;;;;;;;0.85;0.60;;;;;;;;;;5075391;28;20379;-67
2022/07/12 14:11:06;;;;;;;0.55;0.55;;;;;;;;;;5074024;28;20087;-68
2022/07/12 14:13:31;;;;;;;0.43;0.43;;;;;;;;;;5074805;28;20050;-68
2022/07/12 14:15:58;;;;;;;2.38;0.70;;;;;;;;;;5074650;28;20478;-68
2022/07/12 14:18:24;;;;;;;2.42;0.60;;;;;;;;;;5074623;28;20074;-69
2022/07/12 14:20:51;;;;;;;0.88;0.75;;;;;;;;;;5074941;28;20044;-68
2022/07/12 14:23:16;;;;;;;0.85;0.68;;;;;;;;;;5075584;28;20048;-68
2022/07/12 14:25:42;;;;;;;0.60;0.60;;;;;;;;;;5075833;28;20144;-68
2022/07/12 14:28:07;;;;;;;1.80;0.80;;;;;;;;;;5057938;28;20064;-68
2022/07/12 14:30:32;;;;;;;0.80;0.80;;;;;;;;;;5075416;28;20068;-68
2022/07/12 14:32:58;;;;;;;0.63;0.63;;;;;;;;;;5074838;28;20028;-68
2022/07/12 14:35:23;;;;;;;0.63;0.50;;;;;;;;;;5074711;28;20489;-68
2022/07/12 14:37:48;;;;;;;0.60;0.57;;;;;;;;;;5074645;28;20107;-69
2022/07/12 14:40:14;;;;;;;0.40;0.40;;;;;;;;;;5074844;28;20394;-68
2022/07/12 14:42:40;;;;;;;0.68;0.65;;;;;;;;;;5074539;28;20029;-68
2022/07/12 14:45:06;;;;;;;0.60;0.40;;;;;;;;;;5056686;28;20157;-68
2022/07/12 14:47:32;;;;;;;0.77;0.40;;;;;;;;;;5074896;28;20075;-68